Sun City, FL

9:36 AM EDT on October 24, 2014 (GMT -0400)
KFLRUSKI4 | Change Station
CLOSE
Current Station
Personal Weather Station
Location: Ruskin, FL
Elevation: 7 m
Nearby Weather Stations

Elev 7 m 27.67 °N, 82.39 °W | Updated 1 minute ago

Clear
Clear
20.3 °C
Feels Like 20.3 °C
N
1.6
Wind Variable Wind from ENE
Gusts 14.5 km/h

Today
High -- | Low -- °C
--% Chance of Precip.
Yesterday
High -- | Low -- °C
Precip. -- mm
7:35 AM 6:52 PM
New Moon, 0% visible
Pressure 1015 hPa
Visibility 16.1 kilometers
Clouds Clear
Dew Point 16 °C
Humidity 78%
Rainfall 0 mm
Snow Depth Not available.
UV 1.5 out of 12
Pollen 6.20 out of 12
Air Quality Not available.
Flu Activity Local Activity
METAR KSPG 241253Z 04011KT 10SM CLR 21/15 A2998 RMK AO2 SLP150 T02060150

More Conditions Fewer Conditions

Pressure 1015 hPa
Visibility 16.1 kilometers
Clouds Clear
Dew Point 16 °C
Humidity 78%
Rainfall 0 mm
Snow Depth Not available.
UV 1.5 out of 12
Pollen 6.20 out of 12
Air Quality Not available.
Flu Activity Local Activity
METAR KSPG 241253Z 04011KT 10SM CLR 21/15 A2998 RMK AO2 SLP150 T02060150

More Conditions Fewer Conditions

10-Day Weather Forecast

Almanac

Astronomy

Oct. 24, 2014 Rise Set
Actual Time 7:35 AM EDT 6:52 PM EDT
Civil Twilight 7:11 AM EDT 7:16 PM EDT
Nautical Twilight 6:44 AM EDT 7:43 PM EDT
Astronomical Twilight 6:16 AM EDT 8:10 PM EDT
Moon 8:10 AM EDT 7:35 PM EDT
Length of Visible Light 12h 04m
Length of Day
11h 16m
Tomorrow will be 1m 30s shorter.
New Moon, 0% of the Moon is Illuminated
Today
New Moon
Oct 30
First Quarter
Nov 6
Full
Nov 14
Last Quarter
Nov 22
New

Today's Extremes

State Highs State Lows

Community

WunderPhotos

Upload Photos

1,764,550 photos uploaded!

WunderBlogs® & News

Nearby

Snow Depth

Station Depth Elevation
No new snow has been reported.

Earthquake Activity

City Distance Mag. Time & Date
No recent earthquake activity has been reported nearby.
Minimum magnitude displayed is 2.5.

Coastal Water Temperatures

Place Temperature
St Petersburg, FL 26.7 °C
Old Port Tampa, FL 24.4 °C
McKay Bay Entrance, FL 26.1 °C

Nearby Weather Stations